createdAt,value
2019-03-21T00:00:54.146Z,165791.50
2019-03-21T00:03:23.167Z,165791.50
2019-03-21T00:05:52.061Z,165796.84
2019-03-21T00:08:21.029Z,165818.25
2019-03-21T00:11:44.676Z,165811.55
2019-03-21T00:14:47.830Z,165812.91
2019-03-21T00:17:18.970Z,165794.20
2019-03-21T00:19:48.029Z,165776.88
2019-03-21T00:22:17.312Z,165799.56
2019-03-21T00:24:46.194Z,165791.50
2019-03-21T00:27:15.094Z,165803.56
2019-03-21T00:29:43.978Z,165815.55
2019-03-21T00:32:13.124Z,165807.55
2019-03-21T00:34:42.124Z,165807.55
2019-03-21T00:37:11.139Z,165810.25
2019-03-21T00:39:39.993Z,165811.55
2019-03-21T00:42:09.025Z,165839.63
2019-03-21T00:44:37.997Z,165810.25
2019-03-21T00:47:06.891Z,165823.59
2019-03-21T00:49:35.769Z,165796.84
2019-03-21T00:52:05.650Z,165768.83
2019-03-21T00:54:35.406Z,165804.91
2019-03-21T00:57:04.378Z,165790.22
2019-03-21T00:59:33.302Z,165798.20
2019-03-21T01:02:02.205Z,165788.86
2019-03-21T01:04:33.400Z,165834.34
2019-03-21T01:07:03.682Z,165807.55
2019-03-21T01:09:32.694Z,165816.89
2019-03-21T01:12:01.709Z,165820.89
2019-03-21T01:14:30.624Z,165826.25
2019-03-21T01:16:59.651Z,165839.63
2019-03-21T01:19:28.671Z,165788.86
2019-03-21T01:21:57.671Z,165802.20
2019-03-21T01:24:26.680Z,165807.55
2019-03-21T01:26:56.894Z,165786.22
2019-03-21T01:29:26.108Z,165806.19
2019-03-21T01:31:55.071Z,165819.59
2019-03-21T01:34:24.194Z,165791.50
2019-03-21T01:36:53.078Z,165798.20
2019-03-21T01:39:23.096Z,165796.84
2019-03-21T01:41:52.377Z,165811.55
2019-03-21T01:44:21.401Z,165830.23
2019-03-21T01:46:51.532Z,165812.91
2019-03-21T01:49:20.554Z,165822.25
2019-03-21T01:51:49.423Z,165804.91
2019-03-21T01:54:18.309Z,165832.94
2019-03-21T01:56:47.301Z,165840.98
2019-03-21T01:59:16.281Z,165839.63
2019-03-21T02:01:45.576Z,165827.59
2019-03-21T02:04:14.560Z,165795.56
2019-03-21T02:06:43.446Z,165824.94
2019-03-21T02:09:12.367Z,165804.91
2019-03-21T02:11:41.943Z,165812.91
2019-03-21T02:14:11.482Z,165807.55
2019-03-21T02:16:41.992Z,165786.22
2019-03-21T02:19:11.718Z,165808.89
2019-03-21T02:21:40.693Z,165820.89
2019-03-21T02:24:09.906Z,165831.59
2019-03-21T02:26:38.812Z,165835.64
2019-03-21T02:29:07.978Z,165850.33
2019-03-21T02:31:36.889Z,165822.25
2019-03-21T02:34:06.362Z,165836.98
2019-03-21T02:36:35.330Z,165804.91
2019-03-21T02:39:06.353Z,165808.89
2019-03-21T02:41:35.381Z,165810.25
2019-03-21T02:44:04.433Z,165818.25
2019-03-21T02:46:33.302Z,165799.56
2019-03-21T02:49:03.116Z,165812.91
2019-03-21T02:51:32.261Z,165802.20
2019-03-21T02:54:01.198Z,165779.52
2019-03-21T02:56:30.242Z,165804.91
2019-03-21T02:58:59.366Z,165800.91
2019-03-21T03:01:28.545Z,165786.22
2019-03-21T03:03:57.678Z,165810.25
2019-03-21T03:06:26.656Z,165818.25
2019-03-21T03:08:55.743Z,165771.53
2019-03-21T03:11:24.703Z,165815.55
2019-03-21T03:13:54.020Z,165796.84
2019-03-21T03:16:23.392Z,165812.91
2019-03-21T03:18:53.080Z,165803.56
2019-03-21T03:21:22.069Z,165804.91
2019-03-21T03:23:51.266Z,165764.83
2019-03-21T03:26:20.239Z,165783.52
2019-03-21T03:28:49.149Z,165791.50
2019-03-21T03:31:18.153Z,165774.16
2019-03-21T03:33:47.062Z,165759.47
2019-03-21T03:36:16.420Z,165758.13
2019-03-21T03:38:45.350Z,165751.48
2019-03-21T03:41:14.425Z,165748.78
2019-03-21T03:43:43.617Z,165727.45
2019-03-21T03:46:12.903Z,165719.41
2019-03-21T03:48:42.436Z,165727.45
2019-03-21T03:51:11.525Z,165715.41
2019-03-21T03:53:42.469Z,165716.75
2019-03-21T03:56:11.289Z,165730.09
2019-03-21T03:58:42.306Z,165715.41
2019-03-21T04:01:11.273Z,165739.44
2019-03-21T04:03:40.394Z,165759.47
2019-03-21T04:06:09.350Z,165731.44
2019-03-21T04:08:38.358Z,165748.78
2019-03-21T04:11:07.328Z,165731.44
2019-03-21T04:13:36.204Z,165754.13
2019-03-21T04:16:05.256Z,165776.88
2019-03-21T04:18:34.202Z,165771.53
2019-03-21T04:21:03.455Z,165762.17
2019-03-21T04:23:32.324Z,165776.88
2019-03-21T04:26:18.644Z,165759.47
2019-03-21T04:28:47.705Z,165766.17
2019-03-21T04:31:16.599Z,165784.86
2019-03-21T04:33:45.744Z,165763.47
2019-03-21T04:36:14.624Z,165782.16
2019-03-21T04:38:43.545Z,165783.52
2019-03-21T04:41:12.537Z,165787.52
2019-03-21T04:43:41.508Z,165744.78
2019-03-21T04:46:10.383Z,165756.83
2019-03-21T04:48:41.057Z,165744.78
2019-03-21T04:51:10.022Z,165746.14
2019-03-21T04:53:38.971Z,165767.47
2019-03-21T04:56:07.911Z,165744.78
2019-03-21T04:58:37.612Z,165754.13
2019-03-21T05:01:06.455Z,165736.80
2019-03-21T05:03:35.411Z,165730.09
2019-03-21T05:06:04.567Z,165740.78
2019-03-21T05:08:33.544Z,165746.14
2019-03-21T05:11:02.479Z,165746.14
2019-03-21T05:13:31.448Z,165734.09
2019-03-21T05:16:00.315Z,165748.78
2019-03-21T05:18:34.090Z,165762.17
2019-03-21T05:21:03.598Z,165747.48
2019-03-21T05:23:33.480Z,165740.78
2019-03-21T05:26:04.092Z,165746.14
2019-03-21T05:28:33.242Z,165734.09
2019-03-21T05:31:13.870Z,165746.14
2019-03-21T05:33:43.048Z,165712.75
2019-03-21T05:36:12.747Z,165747.48
2019-03-21T05:38:41.691Z,165726.09
2019-03-21T05:41:10.704Z,165723.45
2019-03-21T05:43:48.267Z,165715.41
2019-03-21T05:46:25.948Z,165700.72
2019-03-21T05:48:48.283Z,165702.06
2019-03-21T05:51:17.306Z,165692.72
2019-03-21T05:53:46.237Z,165683.38
2019-03-21T05:56:15.235Z,165662.00
2019-03-21T05:58:44.195Z,165655.36
2019-03-21T06:01:13.365Z,165647.31
2019-03-21T06:03:49.411Z,165627.33
2019-03-21T06:06:34.855Z,165640.67
2019-03-21T06:09:06.424Z,165654.02
2019-03-21T06:11:35.728Z,165648.66
2019-03-21T06:14:04.964Z,165603.31
2019-03-21T06:16:37.849Z,165629.98
2019-03-21T06:19:41.076Z,165623.28
2019-03-21T06:22:56.613Z,165646.02
2019-03-21T06:26:29.978Z,165642.02
2019-03-21T06:28:58.957Z,165639.31
2019-03-21T06:31:27.982Z,165668.69
2019-03-21T06:33:56.875Z,165655.36
2019-03-21T06:36:26.347Z,165644.67
2019-03-21T06:38:55.383Z,165659.34
2019-03-21T06:41:24.564Z,165679.39
2019-03-21T06:43:53.760Z,165666.05
2019-03-21T06:46:22.719Z,165668.69
2019-03-21T06:48:51.604Z,165639.31
2019-03-21T06:51:21.158Z,165628.63
2019-03-21T06:53:50.168Z,165632.63
2019-03-21T06:56:19.183Z,165663.34
2019-03-21T06:58:48.354Z,165699.42
2019-03-21T07:01:17.229Z,165667.34
2019-03-21T07:03:46.156Z,165684.73
2019-03-21T07:06:15.056Z,165664.70
2019-03-21T07:08:43.977Z,165692.72
2019-03-21T07:11:13.534Z,165699.42
2019-03-21T07:13:43.668Z,165667.34
2019-03-21T07:16:12.561Z,165711.41
2019-03-21T07:18:41.548Z,165703.41
2019-03-21T07:21:10.763Z,165695.38
2019-03-21T07:23:39.731Z,165732.80
2019-03-21T07:26:08.626Z,165735.44
2019-03-21T07:28:38.677Z,165722.09
2019-03-21T07:31:07.724Z,165747.48
2019-03-21T07:33:36.632Z,165794.20
2019-03-21T07:36:06.037Z,165798.20
2019-03-21T07:38:34.881Z,165735.44
2019-03-21T07:41:04.695Z,165764.83
2019-03-21T07:43:33.571Z,165788.86
2019-03-21T07:46:03.999Z,165751.48
2019-03-21T07:48:32.949Z,165763.47
2019-03-21T07:51:01.982Z,165763.47
2019-03-21T07:53:31.068Z,165799.56
2019-03-21T07:56:00.047Z,165788.86
2019-03-21T07:58:28.966Z,165771.53
2019-03-21T08:00:59.079Z,165820.89
2019-03-21T08:03:27.969Z,165819.59
2019-03-21T08:05:57.064Z,165835.64
2019-03-21T08:08:25.925Z,165836.98
2019-03-21T08:10:54.828Z,165850.33
2019-03-21T08:13:23.819Z,165850.33
2019-03-21T08:15:52.781Z,165869.03
2019-03-21T08:18:21.673Z,165874.38
2019-03-21T08:20:57.216Z,165890.42
2019-03-21T08:23:22.717Z,165861.03
2019-03-21T08:25:51.788Z,165887.77
2019-03-21T08:28:20.869Z,165877.08
2019-03-21T08:31:15.140Z,165895.77
2019-03-21T08:33:44.338Z,165911.81
2019-03-21T08:36:14.559Z,165915.81
2019-03-21T08:38:43.966Z,165923.81
2019-03-21T08:41:13.085Z,165941.16
2019-03-21T08:43:43.144Z,165951.84
2019-03-21T08:46:12.589Z,165938.50
2019-03-21T08:48:41.650Z,165949.20
2019-03-21T08:51:10.534Z,165977.25
2019-03-21T08:53:39.565Z,165991.95
2019-03-21T08:56:08.828Z,165990.59
2019-03-21T08:58:38.612Z,166029.34
2019-03-21T09:01:07.558Z,166058.75
2019-03-21T09:03:36.585Z,166062.75
2019-03-21T09:06:05.777Z,166022.66
2019-03-21T09:08:34.675Z,166096.16
2019-03-21T09:11:04.853Z,166066.75
2019-03-21T09:13:34.576Z,166085.45
2019-03-21T09:16:03.563Z,166061.41
2019-03-21T09:18:32.437Z,166090.80
2019-03-21T09:21:01.372Z,166102.86
2019-03-21T09:23:30.263Z,166102.86
2019-03-21T09:25:59.590Z,166069.45
2019-03-21T09:28:28.474Z,166104.20
2019-03-21T09:30:57.510Z,166118.91
2019-03-21T09:33:26.534Z,166141.62
2019-03-21T09:35:55.778Z,166152.31
2019-03-21T09:38:24.761Z,166162.97
2019-03-21T09:40:54.020Z,166176.38
2019-03-21T09:43:23.041Z,166168.33
2019-03-21T09:45:51.991Z,166180.37
2019-03-21T09:48:20.876Z,166165.69
2019-03-21T09:50:50.000Z,166181.69
2019-03-21T09:53:19.029Z,166176.38
2019-03-21T09:55:47.945Z,166181.69
2019-03-21T09:58:16.875Z,166184.39
2019-03-21T10:00:45.831Z,166160.33
2019-03-21T10:03:14.793Z,166146.97
2019-03-21T10:05:43.650Z,166184.39
2019-03-21T10:08:12.650Z,166203.09
2019-03-21T10:10:41.657Z,166215.16
2019-03-21T10:13:10.856Z,166213.80
2019-03-21T10:15:40.338Z,166223.16
2019-03-21T10:18:09.239Z,166223.16
2019-03-21T10:20:38.719Z,166204.44
2019-03-21T10:23:07.726Z,166216.45
2019-03-21T10:25:36.652Z,166216.45
2019-03-21T10:28:06.197Z,166232.50
2019-03-21T10:30:37.289Z,166241.86
2019-03-21T10:33:09.471Z,166249.92
2019-03-21T10:35:38.373Z,166269.98
2019-03-21T10:38:07.991Z,166236.50
2019-03-21T10:40:37.334Z,166212.45
2019-03-21T10:43:06.755Z,166237.86
2019-03-21T10:45:35.718Z,166225.81
2019-03-21T10:48:05.448Z,166248.63
2019-03-21T10:50:36.799Z,166256.62
2019-03-21T10:53:06.478Z,166264.63
2019-03-21T10:55:35.553Z,166265.97
2019-03-21T10:58:05.915Z,166272.69
2019-03-21T11:00:34.969Z,166255.28
2019-03-21T11:03:04.688Z,166284.69
2019-03-21T11:05:33.560Z,166319.47
2019-03-21T11:08:03.097Z,166288.69
2019-03-21T11:10:32.282Z,166314.11
2019-03-21T11:13:01.270Z,166346.19
2019-03-21T11:15:30.200Z,166311.45
2019-03-21T11:17:59.128Z,166299.41
2019-03-21T11:20:36.028Z,166352.89
2019-03-21T11:23:07.490Z,166347.53
2019-03-21T11:25:36.716Z,166366.25
2019-03-21T11:28:06.857Z,166358.25
2019-03-21T11:30:41.080Z,166387.67
2019-03-21T11:33:10.283Z,166393.03
2019-03-21T11:35:39.648Z,166439.83
2019-03-21T11:38:09.103Z,166467.91
2019-03-21T11:40:38.054Z,166487.97
2019-03-21T11:43:12.266Z,166505.34
2019-03-21T11:45:41.374Z,166518.77
2019-03-21T11:48:10.306Z,166534.78
2019-03-21T11:50:40.355Z,166544.14
2019-03-21T11:53:09.537Z,166570.94
2019-03-21T11:55:38.502Z,166582.94
2019-03-21T11:58:08.037Z,166578.94
2019-03-21T12:00:43.717Z,166577.59
2019-03-21T12:03:07.935Z,166608.38
2019-03-21T12:05:36.986Z,166635.17
2019-03-21T12:08:05.866Z,166617.80
2019-03-21T12:10:34.860Z,166620.50
2019-03-21T12:13:03.731Z,166679.34
2019-03-21T12:15:32.770Z,166678.05
2019-03-21T12:18:01.658Z,166665.97
2019-03-21T12:20:34.665Z,166695.42
2019-03-21T12:23:04.805Z,166783.78
2019-03-21T12:25:33.743Z,166785.08
2019-03-21T12:28:02.591Z,166815.88
2019-03-21T12:30:41.691Z,166767.69
2019-03-21T12:33:11.002Z,166750.31
2019-03-21T12:35:40.040Z,166783.78
2019-03-21T12:38:10.130Z,166760.98
2019-03-21T12:40:39.046Z,166765.03
2019-03-21T12:43:07.976Z,166786.42
2019-03-21T12:45:37.031Z,166822.59
2019-03-21T12:48:06.525Z,166775.72
2019-03-21T12:50:35.442Z,166782.42
2019-03-21T12:53:04.690Z,166769.05
2019-03-21T12:55:34.092Z,166791.78
2019-03-21T12:58:03.491Z,166831.97
2019-03-21T13:00:41.060Z,166790.44
2019-03-21T13:03:10.202Z,166842.64
2019-03-21T13:05:39.250Z,166896.20
2019-03-21T13:08:08.317Z,166908.28
2019-03-21T13:10:37.189Z,166874.81
2019-03-21T13:13:06.689Z,166866.73
2019-03-21T13:15:35.827Z,166839.98
2019-03-21T13:18:06.869Z,166842.64
2019-03-21T13:20:36.718Z,166763.69
2019-03-21T13:23:06.260Z,166841.34
2019-03-21T13:25:35.786Z,166833.27
2019-03-21T13:28:05.884Z,166809.17
2019-03-21T13:30:35.508Z,166826.61
2019-03-21T13:33:05.477Z,166837.33
2019-03-21T13:35:34.632Z,166839.98
2019-03-21T13:38:04.810Z,166878.81
2019-03-21T13:40:33.846Z,166882.81
2019-03-21T13:43:02.878Z,166864.08
2019-03-21T13:45:32.108Z,166849.34
2019-03-21T13:48:01.315Z,166906.92
2019-03-21T13:50:30.174Z,166873.44
2019-03-21T13:53:04.804Z,166862.73
2019-03-21T13:55:30.034Z,166909.63
2019-03-21T13:57:59.013Z,166913.64
2019-03-21T14:00:27.890Z,166925.66
2019-03-21T14:02:56.820Z,166933.72
2019-03-21T14:05:25.688Z,166967.25
2019-03-21T14:07:54.609Z,166945.81
2019-03-21T14:10:23.578Z,166898.91
2019-03-21T14:12:52.506Z,166909.63
2019-03-21T14:15:23.181Z,166933.72
2019-03-21T14:17:52.198Z,166973.92
2019-03-21T14:20:21.085Z,166976.63
2019-03-21T14:22:50.383Z,166979.28
2019-03-21T14:25:19.283Z,166990.02
2019-03-21T14:27:48.235Z,166905.56
2019-03-21T14:30:17.245Z,166854.72
2019-03-21T14:32:46.249Z,166842.64
2019-03-21T14:35:15.821Z,166845.34
2019-03-21T14:37:45.261Z,166933.72
2019-03-21T14:40:14.649Z,166901.56
2019-03-21T14:42:43.727Z,166888.19
2019-03-21T14:45:15.391Z,166928.38
2019-03-21T14:47:46.235Z,166909.63
2019-03-21T14:50:16.363Z,166898.91
2019-03-21T14:52:45.564Z,166882.81
2019-03-21T14:55:14.893Z,166873.44
2019-03-21T14:57:44.394Z,166848.00
2019-03-21T15:00:16.253Z,166886.83
2019-03-21T15:02:45.273Z,166908.28
2019-03-21T15:05:14.835Z,166904.27
2019-03-21T15:07:44.030Z,166839.98
2019-03-21T15:10:15.153Z,166902.91
2019-03-21T15:12:46.406Z,166936.37
2019-03-21T15:15:17.245Z,166877.45
2019-03-21T15:17:46.137Z,166931.02
2019-03-21T15:20:15.694Z,166902.91
2019-03-21T15:22:44.828Z,166901.56
2019-03-21T15:25:13.945Z,166862.73
2019-03-21T15:27:42.866Z,166853.36
2019-03-21T15:30:15.718Z,166876.16
2019-03-21T15:32:44.794Z,166799.81
2019-03-21T15:35:14.789Z,166770.34
2019-03-21T15:37:43.689Z,166748.97
2019-03-21T15:40:13.282Z,166805.16
2019-03-21T15:42:42.209Z,166724.88
2019-03-21T15:45:22.069Z,166765.03
2019-03-21T15:47:45.665Z,166775.72
2019-03-21T15:50:30.589Z,166719.50
2019-03-21T15:53:00.354Z,166716.84
2019-03-21T15:55:29.516Z,166742.25
2019-03-21T15:57:58.442Z,166719.50
2019-03-21T16:00:36.163Z,166700.78
2019-03-21T16:03:06.383Z,166719.50
2019-03-21T16:05:36.514Z,166723.52
2019-03-21T16:08:08.570Z,166710.14
2019-03-21T16:10:36.593Z,166625.81
2019-03-21T16:13:05.589Z,166647.23
2019-03-21T16:15:34.546Z,166687.41
2019-03-21T16:18:04.267Z,166657.95
2019-03-21T16:20:34.175Z,166668.69
2019-03-21T16:23:03.442Z,166694.06
2019-03-21T16:25:32.427Z,166676.69
2019-03-21T16:28:01.417Z,166659.25
2019-03-21T16:30:30.542Z,166601.67
2019-03-21T16:33:00.618Z,166597.66
2019-03-21T16:35:29.556Z,166597.66
2019-03-21T16:37:58.597Z,166569.58
2019-03-21T16:40:27.616Z,166599.02
2019-03-21T16:42:56.483Z,166585.66
2019-03-21T16:45:25.453Z,166600.38
2019-03-21T16:47:54.426Z,166597.66
2019-03-21T16:50:23.339Z,166599.02
2019-03-21T16:52:52.498Z,166540.14
2019-03-21T16:55:21.437Z,166544.14
2019-03-21T16:57:50.427Z,166522.77
2019-03-21T17:00:20.799Z,166522.77
2019-03-21T17:02:49.999Z,166537.48
2019-03-21T17:05:18.955Z,166530.78
2019-03-21T17:07:47.846Z,166528.13
2019-03-21T17:10:17.395Z,166505.34
2019-03-21T17:12:46.363Z,166502.69
2019-03-21T17:15:16.253Z,166458.55
2019-03-21T17:17:45.202Z,166438.47
2019-03-21T17:20:14.432Z,166477.27
2019-03-21T17:22:43.500Z,166449.19
2019-03-21T17:25:13.011Z,166462.55
2019-03-21T17:27:41.944Z,166455.89
2019-03-21T17:30:11.534Z,166457.19
2019-03-21T17:32:40.468Z,166413.09
2019-03-21T17:35:11.564Z,166417.09
2019-03-21T17:37:40.468Z,166422.45
2019-03-21T17:40:09.933Z,166379.61
2019-03-21T17:42:38.996Z,166411.75
2019-03-21T17:45:10.497Z,166427.77
2019-03-21T17:47:39.440Z,166417.09
2019-03-21T17:50:09.515Z,166407.75
2019-03-21T17:52:38.772Z,166355.53
2019-03-21T17:55:08.807Z,166339.53
2019-03-21T17:57:38.138Z,166350.23
2019-03-21T18:00:11.699Z,166366.25
2019-03-21T18:02:40.888Z,166316.77
2019-03-21T18:05:09.874Z,166299.41
2019-03-21T18:07:38.924Z,166302.09
2019-03-21T18:10:22.104Z,166296.75
2019-03-21T18:12:51.634Z,166286.05
2019-03-21T18:15:20.594Z,166248.63
2019-03-21T18:17:49.969Z,166224.50
2019-03-21T18:20:19.003Z,166228.50
2019-03-21T18:22:47.933Z,166232.50
2019-03-21T18:25:16.988Z,166239.22
2019-03-21T18:27:46.875Z,166215.16
2019-03-21T18:30:16.218Z,166213.80
2019-03-21T18:32:45.955Z,166208.44
2019-03-21T18:35:15.222Z,166197.73
2019-03-21T18:37:44.472Z,166219.16
2019-03-21T18:40:13.551Z,166184.39
2019-03-21T18:42:42.467Z,166193.73
2019-03-21T18:45:11.849Z,166164.33
2019-03-21T18:47:40.940Z,166165.69
2019-03-21T18:50:10.305Z,166169.69
2019-03-21T18:52:39.956Z,166146.97
2019-03-21T18:55:09.500Z,166129.56
2019-03-21T18:57:38.407Z,166144.27
2019-03-21T19:00:08.332Z,166141.62
2019-03-21T19:02:37.466Z,166145.63
2019-03-21T19:05:07.290Z,166146.97
2019-03-21T19:07:36.604Z,166113.56
2019-03-21T19:10:08.120Z,166136.27
2019-03-21T19:12:37.255Z,166136.27
2019-03-21T19:15:07.799Z,166138.92
2019-03-21T19:17:36.706Z,166133.56
2019-03-21T19:20:06.736Z,166098.86
2019-03-21T19:22:35.715Z,166130.91
2019-03-21T19:25:17.437Z,166125.56
2019-03-21T19:27:37.895Z,166152.31
2019-03-21T19:30:08.032Z,166141.62
2019-03-21T19:32:37.202Z,166137.63
2019-03-21T19:35:06.866Z,166080.16
2019-03-21T19:37:35.937Z,166133.56
2019-03-21T19:40:06.765Z,166138.92
2019-03-21T19:42:36.295Z,166148.27
2019-03-21T19:45:08.484Z,166133.56
2019-03-21T19:47:37.445Z,166150.97
2019-03-21T19:50:09.077Z,166145.63
2019-03-21T19:52:37.993Z,166132.27
2019-03-21T19:55:07.652Z,166084.16
2019-03-21T19:57:36.607Z,166090.80
2019-03-21T20:00:09.619Z,166098.86
2019-03-21T20:02:38.699Z,166130.91
2019-03-21T20:05:08.629Z,166130.91
2019-03-21T20:07:37.772Z,166105.50
2019-03-21T20:10:07.477Z,166052.05
2019-03-21T20:12:36.594Z,166076.11
2019-03-21T20:15:16.303Z,166053.41
2019-03-21T20:17:45.409Z,166018.64
2019-03-21T20:20:14.374Z,166052.05
2019-03-21T20:22:43.308Z,166053.41
2019-03-21T20:25:13.422Z,166024.00
2019-03-21T20:27:42.308Z,165998.59
2019-03-21T20:30:16.782Z,165929.16
2019-03-21T20:32:45.711Z,165978.59
2019-03-21T20:35:14.724Z,165993.30
2019-03-21T20:37:43.617Z,165979.91
2019-03-21T20:40:13.048Z,165978.59
2019-03-21T20:42:41.991Z,165942.50
2019-03-21T20:45:12.364Z,165989.25
2019-03-21T20:47:41.261Z,165966.55
2019-03-21T20:50:10.981Z,165982.59
2019-03-21T20:52:40.035Z,165917.11
2019-03-21T20:55:09.657Z,165917.11
2019-03-21T20:57:38.916Z,165938.50
2019-03-21T21:00:12.647Z,165946.50
2019-03-21T21:02:41.613Z,165945.20
2019-03-21T21:05:10.939Z,165967.91
2019-03-21T21:07:39.828Z,165959.91
2019-03-21T21:10:09.317Z,165926.45
2019-03-21T21:12:38.288Z,165946.50
2019-03-21T21:15:11.765Z,165946.50
2019-03-21T21:17:42.975Z,165959.91
2019-03-21T21:20:12.795Z,165951.84
2019-03-21T21:22:41.698Z,165926.45
2019-03-21T21:25:11.426Z,165899.77
2019-03-21T21:27:48.706Z,165850.33
2019-03-21T21:30:13.120Z,165895.77
2019-03-21T21:32:41.994Z,165889.06
2019-03-21T21:35:11.172Z,165906.47
2019-03-21T21:37:40.022Z,165889.06
2019-03-21T21:40:11.226Z,165887.77
2019-03-21T21:42:40.386Z,165885.06
2019-03-21T21:45:11.958Z,165849.03
2019-03-21T21:47:40.915Z,165832.94
2019-03-21T21:50:12.137Z,165807.55
2019-03-21T21:52:42.362Z,165780.87
2019-03-21T21:55:11.981Z,165750.13
2019-03-21T21:57:40.868Z,165759.47
2019-03-21T22:00:12.574Z,165766.17
2019-03-21T22:02:41.473Z,165764.83
2019-03-21T22:05:10.611Z,165752.83
2019-03-21T22:07:39.584Z,165730.09
2019-03-21T22:10:08.989Z,165690.08
2019-03-21T22:12:37.959Z,165695.38
2019-03-21T22:15:08.795Z,165650.00
2019-03-21T22:17:37.706Z,165604.61
2019-03-21T22:20:07.387Z,165567.25
2019-03-21T22:22:36.417Z,165525.91
2019-03-21T22:25:06.611Z,165508.52
2019-03-21T22:27:35.503Z,165520.55
2019-03-21T22:30:07.011Z,165484.50
2019-03-21T22:32:35.926Z,165483.20
2019-03-21T22:35:05.348Z,165464.47
2019-03-21T22:37:34.312Z,165460.48
2019-03-21T22:40:03.751Z,165445.81
2019-03-21T22:42:32.630Z,165431.12
2019-03-21T22:45:04.178Z,165420.48
2019-03-21T22:47:34.133Z,165407.11
2019-03-21T22:50:03.471Z,165391.14
2019-03-21T22:52:32.356Z,165369.77
2019-03-21T22:55:01.457Z,165364.44
2019-03-21T22:57:30.353Z,165351.09
2019-03-21T22:59:59.292Z,165344.41
2019-03-21T23:02:28.124Z,165328.39
2019-03-21T23:04:57.081Z,165304.38
2019-03-21T23:07:26.111Z,165321.70
2019-03-21T23:09:55.005Z,165343.11
2019-03-21T23:12:23.899Z,165359.09
2019-03-21T23:14:52.781Z,165336.37
2019-03-21T23:17:21.974Z,165321.70
2019-03-21T23:19:50.948Z,165345.75
2019-03-21T23:22:19.815Z,165340.37
2019-03-21T23:24:49.675Z,165327.03
2019-03-21T23:27:18.535Z,165359.09
2019-03-21T23:29:47.501Z,165367.13
2019-03-21T23:32:16.439Z,165385.80
2019-03-21T23:34:45.641Z,165399.12
2019-03-21T23:37:14.568Z,165444.50
2019-03-21T23:39:43.456Z,165464.47
2019-03-21T23:42:12.355Z,165485.84
2019-03-21T23:44:41.422Z,165481.84
2019-03-21T23:47:10.334Z,165457.84
2019-03-21T23:49:39.214Z,165464.47
2019-03-21T23:52:08.748Z,165473.81
2019-03-21T23:54:37.612Z,165531.25
2019-03-21T23:57:06.629Z,165528.53
2019-03-21T23:59:35.895Z,165523.20
